createdAt,value
2023-05-22T00:00:26.847Z,98721.88
2023-05-22T00:02:55.362Z,98715.03
2023-05-22T00:05:23.699Z,98710.81
2023-05-22T00:07:52.495Z,98706.69
2023-05-22T00:10:21.194Z,98709.47
2023-05-22T00:12:49.489Z,98705.28
2023-05-22T00:15:19.441Z,98716.47
2023-05-22T00:17:47.895Z,98716.69
2023-05-22T00:20:16.053Z,98716.22
2023-05-22T00:22:45.132Z,98711.31
2023-05-22T00:25:13.668Z,98712.38
2023-05-22T00:27:41.801Z,98721.19
2023-05-22T00:30:11.251Z,98727.78
2023-05-22T00:32:41.355Z,98719.97
2023-05-22T00:35:11.024Z,98718.81
2023-05-22T00:37:39.328Z,98717.16
2023-05-22T00:40:09.280Z,98715.66
2023-05-22T00:42:37.424Z,98714.97
2023-05-22T00:45:06.741Z,98722.09
2023-05-22T00:47:34.885Z,98724.53
2023-05-22T00:50:05.793Z,98718.66
2023-05-22T00:52:35.008Z,98720.00
2023-05-22T00:55:04.137Z,98731.03
2023-05-22T00:57:35.763Z,98725.22
2023-05-22T01:00:06.174Z,98727.75
2023-05-22T01:02:34.926Z,98720.16
2023-05-22T01:05:06.182Z,98716.06
2023-05-22T01:07:37.878Z,98715.00
2023-05-22T01:10:07.573Z,98721.78
2023-05-22T01:12:44.038Z,98721.78
2023-05-22T01:15:23.356Z,98716.50
2023-05-22T01:18:05.874Z,98716.16
2023-05-22T01:20:40.385Z,98710.94
2023-05-22T01:23:35.128Z,98720.81
2023-05-22T01:26:24.012Z,98715.97
2023-05-22T01:29:28.019Z,98715.47
2023-05-22T01:32:00.711Z,98722.13
2023-05-22T01:34:31.361Z,98728.91
2023-05-22T01:37:00.870Z,98721.72
2023-05-22T01:39:30.151Z,98719.72
2023-05-22T01:41:58.898Z,98727.00
2023-05-22T01:44:27.068Z,98716.81
2023-05-22T01:46:55.340Z,98722.41
2023-05-22T01:49:25.279Z,98722.56
2023-05-22T01:51:55.578Z,98721.47
2023-05-22T01:54:32.330Z,98728.19
2023-05-22T01:57:08.861Z,98723.91
2023-05-22T01:59:45.607Z,98718.13
2023-05-22T02:02:17.203Z,98719.47
2023-05-22T02:04:53.981Z,98724.75
2023-05-22T02:07:26.442Z,98727.97
2023-05-22T02:09:57.778Z,98714.69
2023-05-22T02:12:26.746Z,98722.25
2023-05-22T02:14:55.394Z,98718.03
2023-05-22T02:17:24.683Z,98720.88
2023-05-22T02:19:54.448Z,98715.13
2023-05-22T02:22:22.858Z,98712.00
2023-05-22T02:24:51.708Z,98716.44
2023-05-22T02:27:20.343Z,98704.72
2023-05-22T02:29:48.574Z,98707.41
2023-05-22T02:32:17.041Z,98719.88
2023-05-22T02:34:45.738Z,98716.66
2023-05-22T02:37:16.194Z,98713.00
2023-05-22T02:39:45.661Z,98716.03
2023-05-22T02:42:13.771Z,98709.31
2023-05-22T02:44:41.950Z,98710.09
2023-05-22T02:47:10.207Z,98718.03
2023-05-22T02:49:38.663Z,98703.34
2023-05-22T02:52:07.092Z,98706.09
2023-05-22T02:54:37.160Z,98714.22
2023-05-22T02:57:05.996Z,98701.66
2023-05-22T02:59:36.081Z,98702.72
2023-05-22T03:02:05.010Z,98698.81
2023-05-22T03:04:33.308Z,98713.22
2023-05-22T03:07:02.240Z,98703.03
2023-05-22T03:09:30.381Z,98703.66
2023-05-22T03:12:00.167Z,98698.22
2023-05-22T03:14:30.704Z,98688.59
2023-05-22T03:16:59.173Z,98697.78
2023-05-22T03:19:27.707Z,98702.88
2023-05-22T03:21:55.983Z,98702.72
2023-05-22T03:24:24.327Z,98693.84
2023-05-22T03:26:52.655Z,98691.50
2023-05-22T03:29:22.829Z,98701.88
2023-05-22T03:31:51.299Z,98703.81
2023-05-22T03:34:19.662Z,98702.88
2023-05-22T03:36:47.829Z,98707.00
2023-05-22T03:39:16.305Z,98703.28
2023-05-22T03:41:44.464Z,98707.91
2023-05-22T03:44:12.585Z,98700.72
2023-05-22T03:46:42.556Z,98704.63
2023-05-22T03:49:10.665Z,98702.13
2023-05-22T03:51:38.886Z,98701.31
2023-05-22T03:54:07.484Z,98703.00
2023-05-22T03:56:36.271Z,98699.72
2023-05-22T03:59:06.032Z,98698.44
2023-05-22T04:01:34.426Z,98706.25
2023-05-22T04:04:05.632Z,98706.97
2023-05-22T04:06:34.511Z,98699.31
2023-05-22T04:09:02.765Z,98701.84
2023-05-22T04:11:32.261Z,98701.56
2023-05-22T04:14:04.894Z,98703.63
2023-05-22T04:16:33.377Z,98707.28
2023-05-22T04:19:03.609Z,98700.84
2023-05-22T04:21:34.602Z,98709.25
2023-05-22T04:24:07.434Z,98708.34
2023-05-22T04:26:36.300Z,98714.53
2023-05-22T04:29:06.662Z,98706.81
2023-05-22T04:31:35.256Z,98715.69
2023-05-22T04:34:04.096Z,98717.44
2023-05-22T04:36:33.850Z,98716.53
2023-05-22T04:39:02.712Z,98715.06
2023-05-22T04:41:31.041Z,98718.63
2023-05-22T04:44:00.701Z,98719.75
2023-05-22T04:46:29.191Z,98722.81
2023-05-22T04:48:58.538Z,98723.66
2023-05-22T04:51:28.263Z,98724.03
2023-05-22T04:53:58.604Z,98734.00
2023-05-22T04:56:36.018Z,98736.84
2023-05-22T04:59:09.470Z,98733.97
2023-05-22T05:01:38.294Z,98738.63
2023-05-22T05:04:06.742Z,98741.16
2023-05-22T05:06:36.054Z,98737.19
2023-05-22T05:09:05.812Z,98740.31
2023-05-22T05:11:34.001Z,98737.56
2023-05-22T05:14:02.080Z,98726.44
2023-05-22T05:16:30.401Z,98739.16
2023-05-22T05:18:58.901Z,98729.63
2023-05-22T05:21:28.206Z,98733.38
2023-05-22T05:23:56.352Z,98740.34
2023-05-22T05:26:27.400Z,98743.28
2023-05-22T05:28:56.975Z,98749.00
2023-05-22T05:31:25.488Z,98743.22
2023-05-22T05:33:56.786Z,98740.06
2023-05-22T05:36:25.644Z,98743.44
2023-05-22T05:38:54.428Z,98747.47
2023-05-22T05:41:23.273Z,98740.44
2023-05-22T05:43:53.064Z,98743.97
2023-05-22T05:46:21.445Z,98748.19
2023-05-22T05:48:49.711Z,98741.41
2023-05-22T05:51:17.829Z,98747.28
2023-05-22T05:53:46.586Z,98743.31
2023-05-22T05:56:15.151Z,98750.59
2023-05-22T05:58:43.310Z,98749.81
2023-05-22T06:01:13.334Z,98746.53
2023-05-22T06:03:41.889Z,98745.16
2023-05-22T06:06:12.731Z,98738.78
2023-05-22T06:08:42.519Z,98742.72
2023-05-22T06:11:10.708Z,98745.09
2023-05-22T06:13:39.109Z,98748.97
2023-05-22T06:16:07.726Z,98747.53
2023-05-22T06:18:37.315Z,98746.16
2023-05-22T06:21:06.105Z,98759.75
2023-05-22T06:23:34.346Z,98750.94
2023-05-22T06:26:02.964Z,98755.47
2023-05-22T06:28:31.775Z,98759.06
2023-05-22T06:30:59.904Z,98757.38
2023-05-22T06:33:28.111Z,98756.22
2023-05-22T06:35:58.890Z,98759.41
2023-05-22T06:38:26.944Z,98755.88
2023-05-22T06:40:55.383Z,98759.41
2023-05-22T06:43:23.713Z,98757.56
2023-05-22T06:45:52.836Z,98756.03
2023-05-22T06:48:21.481Z,98756.19
2023-05-22T06:50:49.993Z,98755.72
2023-05-22T06:53:19.566Z,98761.06
2023-05-22T06:55:48.136Z,98761.03
2023-05-22T06:58:16.737Z,98758.13
2023-05-22T07:00:45.300Z,98761.34
2023-05-22T07:03:13.955Z,98765.03
2023-05-22T07:05:42.461Z,98763.47
2023-05-22T07:08:10.933Z,98759.97
2023-05-22T07:10:42.441Z,98760.78
2023-05-22T07:13:11.435Z,98759.06
2023-05-22T07:15:39.534Z,98752.81
2023-05-22T07:18:09.619Z,98750.06
2023-05-22T07:20:39.204Z,98756.53
2023-05-22T07:23:07.820Z,98753.25
2023-05-22T07:25:36.249Z,98754.44
2023-05-22T07:28:09.287Z,98757.09
2023-05-22T07:30:39.217Z,98760.50
2023-05-22T07:33:07.956Z,98754.84
2023-05-22T07:35:36.599Z,98755.78
2023-05-22T07:38:05.373Z,98749.31
2023-05-22T07:40:33.841Z,98754.91
2023-05-22T07:43:02.359Z,98749.56
2023-05-22T07:45:32.732Z,98746.31
2023-05-22T07:48:02.233Z,98743.53
2023-05-22T07:50:31.050Z,98745.38
2023-05-22T07:52:59.278Z,98738.25
2023-05-22T07:55:27.672Z,98734.03
2023-05-22T07:57:56.426Z,98738.50
2023-05-22T08:00:25.583Z,98744.97
2023-05-22T08:02:55.620Z,98745.16
2023-05-22T08:05:24.160Z,98744.84
2023-05-22T08:07:52.623Z,98743.56
2023-05-22T08:10:21.046Z,98746.31
2023-05-22T08:12:49.683Z,98745.69
2023-05-22T08:15:18.204Z,98746.41
2023-05-22T08:17:46.576Z,98744.97
2023-05-22T08:20:16.490Z,98749.88
2023-05-22T08:22:44.864Z,98749.69
2023-05-22T08:25:16.225Z,98748.81
2023-05-22T08:27:44.597Z,98750.63
2023-05-22T08:30:13.264Z,98754.13
2023-05-22T08:32:41.749Z,98753.66
2023-05-22T08:35:10.991Z,98753.38
2023-05-22T08:37:40.815Z,98749.81
2023-05-22T08:40:12.760Z,98762.53
2023-05-22T08:42:41.499Z,98754.72
2023-05-22T08:45:10.314Z,98749.53
2023-05-22T08:47:39.311Z,98750.75
2023-05-22T08:50:09.390Z,98734.75
2023-05-22T08:52:48.134Z,98745.84
2023-05-22T08:55:16.720Z,98740.97
2023-05-22T08:57:45.966Z,98737.84
2023-05-22T09:00:15.745Z,98739.50
2023-05-22T09:02:44.126Z,98734.13
2023-05-22T09:05:14.029Z,98735.91
2023-05-22T09:07:44.166Z,98731.63
2023-05-22T09:10:12.925Z,98729.78
2023-05-22T09:13:01.601Z,98736.34
2023-05-22T09:15:32.239Z,98732.19
2023-05-22T09:18:00.842Z,98737.53
2023-05-22T09:20:29.204Z,98731.50
2023-05-22T09:22:59.037Z,98722.25
2023-05-22T09:25:28.758Z,98732.75
2023-05-22T09:27:56.974Z,98726.69
2023-05-22T09:30:25.315Z,98727.56
2023-05-22T09:32:54.672Z,98722.34
2023-05-22T09:35:27.964Z,98724.47
2023-05-22T09:37:58.923Z,98722.97
2023-05-22T09:40:29.033Z,98725.69
2023-05-22T09:42:57.228Z,98715.63
2023-05-22T09:45:26.651Z,98720.69
2023-05-22T09:47:55.001Z,98724.63
2023-05-22T09:50:23.379Z,98715.56
2023-05-22T09:52:53.403Z,98720.97
2023-05-22T09:55:24.809Z,98719.59
2023-05-22T09:57:53.891Z,98706.78
2023-05-22T10:00:24.274Z,98721.28
2023-05-22T10:02:55.740Z,98716.06
2023-05-22T10:05:26.213Z,98717.34
2023-05-22T10:07:58.606Z,98715.69
2023-05-22T10:10:28.423Z,98710.59
2023-05-22T10:13:04.657Z,98708.56
2023-05-22T10:15:33.171Z,98701.03
2023-05-22T10:18:01.829Z,98702.91
2023-05-22T10:20:31.087Z,98713.16
2023-05-22T10:23:00.763Z,98710.69
2023-05-22T10:25:30.740Z,98709.88
2023-05-22T10:28:00.858Z,98704.03
2023-05-22T10:30:35.551Z,98707.28
2023-05-22T10:33:09.666Z,98704.84
2023-05-22T10:35:51.493Z,98702.94
2023-05-22T10:38:33.051Z,98694.22
2023-05-22T10:41:04.791Z,98689.66
2023-05-22T10:43:33.236Z,98687.94
2023-05-22T10:46:04.859Z,98689.50
2023-05-22T10:48:39.678Z,98675.63
2023-05-22T10:51:08.908Z,98673.78
2023-05-22T10:53:37.669Z,98677.22
2023-05-22T10:56:25.355Z,98675.03
2023-05-22T10:58:59.407Z,98663.31
2023-05-22T11:01:28.026Z,98661.84
2023-05-22T11:03:58.377Z,98668.91
2023-05-22T11:06:41.228Z,98668.84
2023-05-22T11:09:20.366Z,98664.19
2023-05-22T11:12:31.388Z,98661.63
2023-05-22T11:15:01.188Z,98648.31
2023-05-22T11:17:31.275Z,98657.25
2023-05-22T11:20:02.734Z,98668.41
2023-05-22T11:22:36.132Z,98657.94
2023-05-22T11:25:11.052Z,98661.09
2023-05-22T11:27:43.596Z,98645.53
2023-05-22T11:30:13.292Z,98649.59
2023-05-22T11:32:45.024Z,98651.41
2023-05-22T11:35:17.634Z,98641.28
2023-05-22T11:37:46.068Z,98646.81
2023-05-22T11:40:17.204Z,98636.31
2023-05-22T11:42:47.006Z,98637.94
2023-05-22T11:45:15.371Z,98635.72
2023-05-22T11:47:44.889Z,98633.91
2023-05-22T11:50:15.137Z,98621.16
2023-05-22T11:52:46.885Z,98624.75
2023-05-22T11:55:15.299Z,98624.53
2023-05-22T11:57:43.445Z,98616.63
2023-05-22T12:00:15.446Z,98621.13
2023-05-22T12:02:47.965Z,98619.09
2023-05-22T12:05:17.034Z,98609.78
2023-05-22T12:07:45.499Z,98607.31
2023-05-22T12:10:15.780Z,98606.75
2023-05-22T12:12:45.328Z,98609.16
2023-05-22T12:15:16.209Z,98606.69
2023-05-22T12:17:44.679Z,98607.97
2023-05-22T12:20:14.834Z,98603.31
2023-05-22T12:22:44.872Z,98603.50
2023-05-22T12:25:18.043Z,98607.69
2023-05-22T12:27:46.788Z,98608.16
2023-05-22T12:30:17.805Z,98603.59
2023-05-22T12:32:50.225Z,98602.09
2023-05-22T12:35:20.866Z,98598.44
2023-05-22T12:37:53.539Z,98594.91
2023-05-22T12:40:21.862Z,98602.81
2023-05-22T12:42:50.259Z,98593.22
2023-05-22T12:45:20.359Z,98599.50
2023-05-22T12:47:48.653Z,98590.47
2023-05-22T12:50:16.882Z,98589.53
2023-05-22T12:52:45.178Z,98594.47
2023-05-22T12:55:13.682Z,98592.78
2023-05-22T12:57:41.956Z,98589.56
2023-05-22T13:00:11.770Z,98588.91
2023-05-22T13:02:41.908Z,98582.97
2023-05-22T13:05:10.385Z,98585.38
2023-05-22T13:07:39.243Z,98582.84
2023-05-22T13:10:09.946Z,98582.59
2023-05-22T13:12:39.734Z,98579.63
2023-05-22T13:15:09.683Z,98574.78
2023-05-22T13:17:38.069Z,98577.50
2023-05-22T13:20:10.227Z,98580.44
2023-05-22T13:22:38.849Z,98578.53
2023-05-22T13:25:08.056Z,98579.22
2023-05-22T13:27:36.911Z,98586.22
2023-05-22T13:30:06.597Z,98589.22
2023-05-22T13:32:35.461Z,98597.41
2023-05-22T13:35:03.718Z,98595.78
2023-05-22T13:37:33.721Z,98592.94
2023-05-22T13:40:01.956Z,98585.22
2023-05-22T13:42:30.511Z,98586.41
2023-05-22T13:44:58.961Z,98590.09
2023-05-22T13:47:27.442Z,98593.94
2023-05-22T13:49:55.934Z,98593.72
2023-05-22T13:52:24.529Z,98586.13
2023-05-22T13:54:54.563Z,98586.91
2023-05-22T13:57:22.873Z,98585.41
2023-05-22T13:59:51.334Z,98587.03
2023-05-22T14:02:21.008Z,98581.78
2023-05-22T14:04:49.910Z,98571.41
2023-05-22T14:07:18.121Z,98572.13
2023-05-22T14:09:46.282Z,98576.72
2023-05-22T14:12:15.899Z,98580.94
2023-05-22T14:14:44.016Z,98579.50
2023-05-22T14:17:12.422Z,98579.31
2023-05-22T14:19:40.976Z,98575.88
2023-05-22T14:22:09.713Z,98580.66
2023-05-22T14:24:37.906Z,98579.41
2023-05-22T14:27:07.026Z,98571.75
2023-05-22T14:29:36.613Z,98573.53
2023-05-22T14:32:06.281Z,98560.34
2023-05-22T14:34:34.461Z,98560.03
2023-05-22T14:37:02.903Z,98554.91
2023-05-22T14:39:31.164Z,98553.78
2023-05-22T14:41:59.532Z,98543.50
2023-05-22T14:44:27.780Z,98550.91
2023-05-22T14:46:58.107Z,98554.31
2023-05-22T14:49:26.289Z,98548.94
2023-05-22T14:51:54.891Z,98549.91
2023-05-22T14:54:24.142Z,98548.75
2023-05-22T14:56:52.835Z,98545.75
2023-05-22T14:59:21.597Z,98556.38
2023-05-22T15:01:50.697Z,98555.13
2023-05-22T15:04:20.774Z,98557.66
2023-05-22T15:06:49.322Z,98553.84
2023-05-22T15:09:20.376Z,98567.03
2023-05-22T15:11:51.195Z,98585.44
2023-05-22T15:14:20.155Z,98582.91
2023-05-22T15:16:49.012Z,98591.13
2023-05-22T15:19:17.522Z,98585.84
2023-05-22T15:21:47.319Z,98585.06
2023-05-22T15:24:15.712Z,98572.00
2023-05-22T15:26:44.250Z,98578.78
2023-05-22T15:29:13.838Z,98579.66
2023-05-22T15:31:41.957Z,98572.53
2023-05-22T15:34:10.203Z,98554.03
2023-05-22T15:36:38.253Z,98549.06
2023-05-22T15:39:08.135Z,98556.19
2023-05-22T15:41:37.775Z,98556.81
2023-05-22T15:44:06.340Z,98554.50
2023-05-22T15:46:34.840Z,98557.84
2023-05-22T15:49:03.329Z,98552.81
2023-05-22T15:51:32.892Z,98543.66
2023-05-22T15:54:01.107Z,98547.59
2023-05-22T15:56:30.957Z,98552.63
2023-05-22T15:58:59.125Z,98548.22
2023-05-22T16:01:29.630Z,98553.22
2023-05-22T16:03:58.140Z,98557.19
2023-05-22T16:06:27.626Z,98555.53
2023-05-22T16:08:55.820Z,98560.34
2023-05-22T16:11:24.046Z,98564.50
2023-05-22T16:13:54.013Z,98559.28
2023-05-22T16:16:22.601Z,98554.69
2023-05-22T16:18:51.073Z,98561.81
2023-05-22T16:21:19.668Z,98568.94
2023-05-22T16:23:48.266Z,98579.53
2023-05-22T16:26:17.066Z,98589.56
2023-05-22T16:28:45.390Z,98586.03
2023-05-22T16:31:18.352Z,98599.16
2023-05-22T16:33:47.467Z,98597.06
2023-05-22T16:36:15.885Z,98601.22
2023-05-22T16:38:44.066Z,98608.38
2023-05-22T16:41:12.520Z,98603.31
2023-05-22T16:43:40.740Z,98600.41
2023-05-22T16:46:11.639Z,98614.81
2023-05-22T16:48:41.587Z,98605.41
2023-05-22T16:51:10.677Z,98607.28
2023-05-22T16:53:39.010Z,98608.78
2023-05-22T16:56:07.773Z,98608.09
2023-05-22T16:58:36.135Z,98614.72
2023-05-22T17:01:06.480Z,98605.31
2023-05-22T17:03:35.099Z,98617.88
2023-05-22T17:06:05.433Z,98619.78
2023-05-22T17:08:33.744Z,98620.22
2023-05-22T17:11:01.854Z,98617.31
2023-05-22T17:13:30.455Z,98616.88
2023-05-22T17:15:59.103Z,98621.25
2023-05-22T17:18:28.136Z,98630.84
2023-05-22T17:20:56.372Z,98626.88
2023-05-22T17:23:26.358Z,98633.56
2023-05-22T17:25:55.397Z,98639.41
2023-05-22T17:28:23.658Z,98646.13
2023-05-22T17:30:51.759Z,98643.41
2023-05-22T17:33:20.244Z,98646.34
2023-05-22T17:35:48.499Z,98636.31
2023-05-22T17:38:17.032Z,98630.72
2023-05-22T17:40:47.242Z,98636.94
2023-05-22T17:43:16.791Z,98650.47
2023-05-22T17:45:49.911Z,98652.13
2023-05-22T17:48:23.623Z,98650.44
2023-05-22T17:50:52.330Z,98657.53
2023-05-22T17:53:22.120Z,98656.69
2023-05-22T17:55:52.629Z,98659.41
2023-05-22T17:58:22.040Z,98658.38
2023-05-22T18:00:50.504Z,98660.91
2023-05-22T18:03:20.583Z,98668.78
2023-05-22T18:05:51.147Z,98674.63
2023-05-22T18:08:21.586Z,98671.75
2023-05-22T18:10:52.469Z,98672.91
2023-05-22T18:13:21.938Z,98676.44
2023-05-22T18:15:51.916Z,98677.16
2023-05-22T18:18:20.998Z,98670.66
2023-05-22T18:20:49.853Z,98666.91
2023-05-22T18:23:18.211Z,98668.84
2023-05-22T18:25:46.354Z,98672.69
2023-05-22T18:28:16.452Z,98675.06
2023-05-22T18:30:45.944Z,98678.91
2023-05-22T18:33:14.304Z,98678.00
2023-05-22T18:35:43.282Z,98676.50
2023-05-22T18:38:11.734Z,98678.19
2023-05-22T18:40:40.673Z,98679.28
2023-05-22T18:43:08.972Z,98677.69
2023-05-22T18:45:38.880Z,98683.09
2023-05-22T18:48:07.306Z,98675.59
2023-05-22T18:50:35.988Z,98674.22
2023-05-22T18:53:04.103Z,98682.44
2023-05-22T18:55:32.570Z,98675.81
2023-05-22T18:58:01.977Z,98673.66
2023-05-22T19:00:31.991Z,98679.97
2023-05-22T19:03:02.210Z,98679.97
2023-05-22T19:05:30.808Z,98680.47
2023-05-22T19:07:59.395Z,98685.13
2023-05-22T19:10:27.624Z,98691.75
2023-05-22T19:12:56.411Z,98693.03
2023-05-22T19:15:25.822Z,98701.91
2023-05-22T19:17:54.116Z,98697.66
2023-05-22T19:20:24.179Z,98705.81
2023-05-22T19:22:55.130Z,98712.81
2023-05-22T19:25:23.574Z,98712.81
2023-05-22T19:27:51.759Z,98717.75
2023-05-22T19:30:21.978Z,98722.47
2023-05-22T19:32:51.288Z,98721.94
2023-05-22T19:35:22.726Z,98722.31
2023-05-22T19:37:52.358Z,98726.31
2023-05-22T19:40:20.891Z,98733.50
2023-05-22T19:42:49.062Z,98732.78
2023-05-22T19:45:17.720Z,98743.09
2023-05-22T19:47:46.380Z,98737.09
2023-05-22T19:50:14.617Z,98742.28
2023-05-22T19:52:44.969Z,98746.88
2023-05-22T19:55:14.601Z,98747.38
2023-05-22T19:57:44.650Z,98758.31
2023-05-22T20:00:14.300Z,98757.81
2023-05-22T20:02:42.786Z,98752.75
2023-05-22T20:05:13.313Z,98761.88
2023-05-22T20:07:43.172Z,98765.25
2023-05-22T20:10:12.912Z,98765.78
2023-05-22T20:12:42.527Z,98771.50
2023-05-22T20:15:15.251Z,98771.53
2023-05-22T20:17:47.806Z,98770.81
2023-05-22T20:20:16.432Z,98773.03
2023-05-22T20:22:44.609Z,98772.00
2023-05-22T20:25:12.772Z,98777.72
2023-05-22T20:27:43.643Z,98771.53
2023-05-22T20:30:14.111Z,98772.00
2023-05-22T20:32:42.825Z,98778.06
2023-05-22T20:35:13.238Z,98777.91
2023-05-22T20:37:42.329Z,98780.94
2023-05-22T20:40:12.177Z,98783.44
2023-05-22T20:42:41.252Z,98789.16
2023-05-22T20:45:14.789Z,98788.63
2023-05-22T20:47:44.490Z,98786.47
2023-05-22T20:50:13.177Z,98790.00
2023-05-22T20:52:43.015Z,98802.41
2023-05-22T20:55:11.661Z,98805.28
2023-05-22T20:57:40.144Z,98809.66
2023-05-22T21:00:14.157Z,98811.66
2023-05-22T21:02:48.156Z,98811.81
2023-05-22T21:05:16.560Z,98803.41
2023-05-22T21:07:45.034Z,98809.59
2023-05-22T21:10:13.541Z,98807.75
2023-05-22T21:12:41.886Z,98806.22
2023-05-22T21:15:11.499Z,98798.81
2023-05-22T21:17:40.717Z,98800.75
2023-05-22T21:20:11.762Z,98796.03
2023-05-22T21:22:40.268Z,98791.50
2023-05-22T21:25:10.489Z,98788.50
2023-05-22T21:27:38.663Z,98788.63
2023-05-22T21:30:07.907Z,98795.38
2023-05-22T21:32:36.319Z,98799.41
2023-05-22T21:35:04.811Z,98794.34
2023-05-22T21:37:34.447Z,98801.97
2023-05-22T21:40:03.088Z,98801.06
2023-05-22T21:42:41.873Z,98797.91
2023-05-22T21:45:14.493Z,98800.25
2023-05-22T21:47:42.825Z,98798.25
2023-05-22T21:50:12.134Z,98796.56
2023-05-22T21:52:41.989Z,98804.13
2023-05-22T21:55:10.990Z,98800.09
2023-05-22T21:57:39.940Z,98809.84
2023-05-22T22:00:09.151Z,98814.69
2023-05-22T22:02:37.446Z,98810.03
2023-05-22T22:05:06.559Z,98816.38
2023-05-22T22:07:34.767Z,98813.38
2023-05-22T22:10:05.126Z,98823.31
2023-05-22T22:12:33.540Z,98823.59
2023-05-22T22:15:02.501Z,98821.59
2023-05-22T22:17:31.177Z,98830.84
2023-05-22T22:19:59.260Z,98827.47
2023-05-22T22:22:27.535Z,98826.59
2023-05-22T22:24:56.195Z,98822.59
2023-05-22T22:27:25.813Z,98828.31
2023-05-22T22:29:55.258Z,98821.41
2023-05-22T22:32:23.438Z,98825.47
2023-05-22T22:34:54.168Z,98817.91
2023-05-22T22:37:24.784Z,98818.94
2023-05-22T22:39:52.917Z,98822.44
2023-05-22T22:42:21.083Z,98827.16
2023-05-22T22:44:50.700Z,98831.00
2023-05-22T22:47:19.205Z,98829.16
2023-05-22T22:49:47.652Z,98834.03
2023-05-22T22:52:16.175Z,98837.53
2023-05-22T22:54:44.802Z,98843.19
2023-05-22T22:57:13.627Z,98843.34
2023-05-22T22:59:41.924Z,98838.66
2023-05-22T23:02:11.628Z,98846.66
2023-05-22T23:04:41.420Z,98838.91
2023-05-22T23:07:11.900Z,98851.88
2023-05-22T23:09:41.572Z,98846.47
2023-05-22T23:12:10.020Z,98845.13
2023-05-22T23:14:40.621Z,98841.34
2023-05-22T23:17:08.685Z,98854.41
2023-05-22T23:19:38.146Z,98853.53
2023-05-22T23:22:06.668Z,98856.97
2023-05-22T23:24:34.820Z,98856.22
2023-05-22T23:27:03.235Z,98865.00
2023-05-22T23:29:31.421Z,98863.78
2023-05-22T23:31:59.872Z,98868.75
2023-05-22T23:34:27.964Z,98872.22
2023-05-22T23:36:57.902Z,98871.53
2023-05-22T23:39:26.972Z,98868.38
2023-05-22T23:41:55.379Z,98866.91
2023-05-22T23:44:23.713Z,98870.22
2023-05-22T23:46:51.918Z,98866.31
2023-05-22T23:49:20.210Z,98860.63
2023-05-22T23:51:48.410Z,98865.16
2023-05-22T23:54:18.111Z,98858.03
2023-05-22T23:56:46.713Z,98871.63
2023-05-22T23:59:15.450Z,98870.69
